Time;durP1;ratioP1;P1;durP2;ratioP2;P2;SDS_P1;SDS_P2;PMS_P1;PMS_P2;Temp;Humidity;BMP_temperature;BMP_pressure;BME280_temperature;BME280_humidity;BME280_pressure;Samples;Min_cycle;Max_cycle;Signal;HPM_P1;HPM_P2
2022/08/23 00:01:55;;;;;;;13.60;3.58;;;23.20;99.90;;;;;;5025203;28;20192;-76
2022/08/23 00:04:29;;;;;;;11.85;3.15;;;23.20;99.90;;;;;;5028468;28;20196;-76
2022/08/23 00:06:56;;;;;;;11.17;2.93;;;23.10;99.90;;;;;;5024893;28;20199;-76
2022/08/23 00:09:27;;;;;;;14.90;3.17;;;23.10;99.90;;;;;;5042974;28;20680;-76
2022/08/23 00:12:22;;;;;;;8.38;2.88;;;23.10;99.90;;;;;;5023020;28;20208;-76
2022/08/23 00:14:53;;;;;;;11.05;3.05;;;23.10;99.90;;;;;;5002592;28;20215;-76
2022/08/23 00:17:20;;;;;;;10.23;2.58;;;23.10;99.90;;;;;;5023769;28;20200;-76
2022/08/23 00:19:47;;;;;;;10.33;3.10;;;23.00;99.90;;;;;;5026246;28;20192;-76
2022/08/23 00:22:15;;;;;;;13.07;3.27;;;23.10;99.90;;;;;;5010607;28;20191;-76
2022/08/23 00:24:41;;;;;;;12.03;3.40;;;23.00;99.90;;;;;;5057074;28;20191;-74
2022/08/23 00:27:11;;;;;;;9.13;2.90;;;23.00;99.90;;;;;;5020973;28;20192;-74
2022/08/23 00:29:50;;;;;;;9.90;3.17;;;23.00;99.90;;;;;;5021679;28;20267;-76
2022/08/23 00:32:40;;;;;;;14.10;3.25;;;23.00;99.90;;;;;;5005168;28;20184;-74
2022/08/23 00:35:10;;;;;;;11.73;3.10;;;23.00;99.90;;;;;;5008988;28;20216;-76
2022/08/23 00:37:37;;;;;;;17.48;3.45;;;22.80;99.90;;;;;;4999101;28;20185;-76
2022/08/23 00:40:07;;;;;;;10.98;2.92;;;22.90;99.90;;;;;;5030009;28;20543;-76
2022/08/23 00:49:13;;;;;;;18.00;3.40;;;23.00;99.90;;;;;;5022991;28;20220;-76
2022/08/23 00:52:28;;;;;;;14.30;3.47;;;23.00;99.90;;;;;;5022171;28;20189;-76
2022/08/23 00:54:55;;;;;;;12.23;2.97;;;23.00;99.90;;;;;;5012123;28;20337;-76
2022/08/23 00:57:23;;;;;;;15.93;3.20;;;23.00;99.90;;;;;;5013629;28;20642;-76
2022/08/23 00:59:50;;;;;;;13.82;3.40;;;23.00;99.90;;;;;;5009822;28;20252;-76
2022/08/23 01:02:18;;;;;;;14.55;3.95;;;23.00;99.90;;;;;;5022429;28;20185;-76
2022/08/23 01:04:54;;;;;;;10.07;2.90;;;23.00;99.90;;;;;;5007887;28;20282;-75
2022/08/23 01:07:27;;;;;;;15.30;4.07;;;23.00;99.90;;;;;;5017940;28;20274;-76
2022/08/23 01:10:00;;;;;;;14.87;4.00;;;23.00;99.90;;;;;;5017296;28;20266;-76
2022/08/23 01:12:45;;;;;;;11.33;3.13;;;22.90;99.90;;;;;;5021315;28;20196;-76
2022/08/23 01:15:23;;;;;;;10.82;3.72;;;23.00;99.90;;;;;;5025363;28;20207;-76
2022/08/23 01:18:01;;;;;;;14.80;4.00;;;22.90;99.90;;;;;;5040715;28;20252;-76
2022/08/23 01:20:42;;;;;;;11.13;3.38;;;22.80;99.90;;;;;;5026191;28;20195;-76
2022/08/23 01:23:39;;;;;;;13.82;3.67;;;22.80;99.90;;;;;;5060409;28;20945;-76
2022/08/23 01:26:07;;;;;;;12.45;3.70;;;22.90;99.90;;;;;;4994181;28;20246;-75
2022/08/23 01:28:35;;;;;;;14.80;4.33;;;22.90;99.90;;;;;;5040962;28;20216;-76
2022/08/23 01:31:01;;;;;;;12.97;3.90;;;22.90;99.90;;;;;;5027211;28;20180;-76
2022/08/23 01:33:28;;;;;;;15.25;4.35;;;22.90;99.90;;;;;;5027154;28;20204;-76
2022/08/23 01:35:57;;;;;;;13.90;4.07;;;22.80;99.90;;;;;;5013252;28;20223;-76
2022/08/23 01:38:25;;;;;;;11.40;3.57;;;22.80;99.90;;;;;;5023655;28;20270;-76
2022/08/23 01:40:52;;;;;;;16.23;4.27;;;22.80;99.90;;;;;;5015769;28;20533;-75
2022/08/23 01:43:22;;;;;;;12.40;4.20;;;22.70;99.90;;;;;;5025570;28;20196;-75
2022/08/23 01:45:51;;;;;;;12.80;4.07;;;22.70;99.90;;;;;;5023855;28;20203;-76
2022/08/23 01:48:19;;;;;;;13.20;4.17;;;22.70;99.90;;;;;;5017077;28;20197;-76
2022/08/23 01:50:46;;;;;;;15.23;4.13;;;22.60;99.90;;;;;;5020707;28;20637;-76
2022/08/23 01:53:14;;;;;;;13.00;4.10;;;22.60;99.90;;;;;;5028394;28;20649;-76
2022/08/23 01:55:42;;;;;;;13.87;4.00;;;22.60;99.90;;;;;;5024539;28;20294;-76
2022/08/23 01:58:10;;;;;;;15.43;4.13;;;22.50;99.90;;;;;;5013285;28;20258;-76
2022/08/23 02:00:41;;;;;;;16.92;4.25;;;22.50;99.90;;;;;;5030447;28;20275;-75
2022/08/23 02:03:10;;;;;;;12.50;4.03;;;22.60;99.90;;;;;;5017185;28;20180;-76
2022/08/23 02:05:39;;;;;;;17.30;4.22;;;22.60;99.90;;;;;;5028444;28;20192;-76
2022/08/23 02:10:53;;;;;;;15.30;4.60;;;22.60;99.90;;;;;;5012731;28;20204;-75
2022/08/23 02:13:20;;;;;;;13.47;4.10;;;22.60;99.90;;;;;;5012269;28;20184;-76
2022/08/23 02:15:50;;;;;;;13.40;3.97;;;22.60;99.90;;;;;;5030280;28;20208;-76
2022/08/23 02:18:19;;;;;;;19.20;4.87;;;22.60;99.90;;;;;;5043074;28;20233;-76
2022/08/23 02:20:51;;;;;;;11.13;3.50;;;22.50;99.90;;;;;;5028897;28;20185;-76
2022/08/23 02:23:20;;;;;;;15.00;4.20;;;22.60;99.90;;;;;;5030346;28;20644;-76
2022/08/23 02:25:49;;;;;;;12.50;3.97;;;22.60;99.90;;;;;;5031826;28;20188;-76
2022/08/23 02:28:20;;;;;;;13.30;4.13;;;22.60;99.90;;;;;;5025546;28;20206;-75
2022/08/23 02:30:47;;;;;;;11.97;4.00;;;22.60;99.90;;;;;;5029557;28;20188;-75
2022/08/23 02:33:15;;;;;;;14.30;4.63;;;22.60;99.90;;;;;;5030449;28;20283;-76
2022/08/23 02:35:42;;;;;;;13.20;4.10;;;22.50;99.90;;;;;;5027207;28;20213;-76
2022/08/23 02:38:11;;;;;;;15.77;4.37;;;22.50;99.90;;;;;;5036261;28;20333;-76
2022/08/23 02:40:39;;;;;;;12.90;3.90;;;22.60;99.90;;;;;;5013656;28;20274;-75
2022/08/23 02:43:06;;;;;;;14.48;4.32;;;22.60;99.90;;;;;;5028315;28;20275;-76
2022/08/23 02:45:33;;;;;;;12.00;3.45;;;22.50;99.90;;;;;;5029671;28;20192;-75
2022/08/23 02:48:00;;;;;;;11.70;3.70;;;22.60;99.90;;;;;;5041790;28;20230;-75
2022/08/23 02:50:27;;;;;;;15.30;3.80;;;22.60;99.90;;;;;;5017236;28;20320;-75
2022/08/23 02:52:54;;;;;;;16.00;3.90;;;22.50;99.90;;;;;;5027445;28;20358;-76
2022/08/23 02:55:21;;;;;;;15.27;4.30;;;22.60;99.90;;;;;;5011227;28;20197;-75
2022/08/23 02:57:48;;;;;;;15.77;4.37;;;22.60;99.90;;;;;;5023007;28;20326;-76
2022/08/23 03:00:16;;;;;;;13.43;4.37;;;22.50;99.90;;;;;;5010830;28;20270;-75
2022/08/23 03:02:44;;;;;;;13.27;3.97;;;22.40;99.90;;;;;;5038879;28;20238;-76
2022/08/23 03:05:12;;;;;;;11.47;3.90;;;22.40;99.90;;;;;;4999148;28;20184;-76
2022/08/23 03:07:39;;;;;;;10.37;3.90;;;22.40;99.90;;;;;;5028805;28;20191;-75
2022/08/23 03:10:08;;;;;;;15.87;4.40;;;22.40;99.90;;;;;;5027466;28;20180;-75
2022/08/23 03:12:35;;;;;;;16.77;4.57;;;22.40;99.90;;;;;;5030769;28;20188;-75
2022/08/23 03:15:03;;;;;;;15.60;5.20;;;22.40;99.90;;;;;;5036220;28;20196;-76
2022/08/23 03:17:29;;;;;;;17.92;4.30;;;22.20;99.90;;;;;;5025898;28;20181;-76
2022/08/23 03:19:56;;;;;;;11.95;4.40;;;22.30;99.90;;;;;;5030837;28;20192;-76
2022/08/23 03:22:23;;;;;;;17.60;4.97;;;22.20;99.90;;;;;;4997257;28;20199;-76
2022/08/23 03:24:51;;;;;;;15.43;5.00;;;22.20;99.90;;;;;;5035661;28;20260;-76
2022/08/23 03:27:17;;;;;;;13.30;4.10;;;22.30;99.90;;;;;;5022338;28;20188;-76
2022/08/23 03:29:44;;;;;;;15.53;5.00;;;22.30;99.90;;;;;;5028191;28;20196;-76
2022/08/23 03:32:10;;;;;;;15.10;5.23;;;22.30;99.90;;;;;;5016713;28;20646;-76
2022/08/23 03:34:36;;;;;;;15.30;4.80;;;22.30;99.90;;;;;;5034215;28;20214;-76
2022/08/23 03:37:03;;;;;;;11.57;4.27;;;22.30;99.90;;;;;;5027923;28;20196;-76
2022/08/23 03:39:30;;;;;;;15.67;4.33;;;22.30;99.90;;;;;;5029933;28;20180;-76
2022/08/23 03:41:57;;;;;;;18.17;5.00;;;22.40;99.90;;;;;;5018571;28;20184;-76
2022/08/23 03:44:23;;;;;;;11.37;4.53;;;22.40;99.90;;;;;;5038400;28;20601;-75
2022/08/23 03:46:50;;;;;;;12.30;4.97;;;22.50;99.90;;;;;;5024876;28;20187;-76
2022/08/23 03:49:16;;;;;;;11.23;4.30;;;22.50;99.90;;;;;;5025311;28;20188;-75
2022/08/23 03:51:42;;;;;;;11.10;4.63;;;22.40;99.90;;;;;;5018874;28;20185;-75
2022/08/23 03:54:09;;;;;;;22.23;4.95;;;22.40;99.90;;;;;;5034797;28;20195;-74
2022/08/23 03:56:49;;;;;;;13.93;5.47;;;22.40;99.90;;;;;;5022753;28;20708;-76
2022/08/23 03:59:15;;;;;;;16.08;5.15;;;22.50;99.90;;;;;;5042249;28;20290;-75
2022/08/23 04:01:42;;;;;;;14.53;4.33;;;22.50;99.90;;;;;;5030935;28;20184;-75
2022/08/23 04:04:09;;;;;;;12.07;4.73;;;22.50;99.90;;;;;;5062098;28;20292;-75
2022/08/23 04:06:35;;;;;;;14.77;5.37;;;22.60;99.90;;;;;;5029802;28;20189;-76
2022/08/23 04:09:03;;;;;;;16.50;5.03;;;22.50;99.90;;;;;;5019692;28;20596;-75
2022/08/23 04:11:30;;;;;;;8.77;4.10;;;22.50;99.90;;;;;;5027226;28;20259;-75
2022/08/23 04:13:56;;;;;;;16.20;4.95;;;22.50;99.90;;;;;;5021879;28;20215;-75
2022/08/23 04:16:22;;;;;;;16.15;4.95;;;22.60;99.90;;;;;;5031454;28;20550;-75
2022/08/23 04:18:49;;;;;;;15.07;4.93;;;22.60;99.90;;;;;;5007315;28;20283;-75
2022/08/23 04:21:21;;;;;;;13.20;4.95;;;22.60;99.90;;;;;;5026193;28;20804;-75
2022/08/23 04:23:47;;;;;;;15.30;4.88;;;22.60;99.90;;;;;;5027264;28;20574;-75
2022/08/23 04:26:14;;;;;;;21.00;4.63;;;22.60;99.90;;;;;;5042593;28;20218;-75
2022/08/23 04:28:40;;;;;;;14.70;5.13;;;22.60;99.90;;;;;;5029099;28;20613;-76
2022/08/23 04:31:07;;;;;;;17.83;4.95;;;22.70;99.90;;;;;;5027820;28;20223;-75
2022/08/23 04:33:34;;;;;;;14.77;5.03;;;22.70;99.90;;;;;;5022539;28;20204;-75
2022/08/23 04:36:03;;;;;;;17.48;4.93;;;22.70;99.90;;;;;;5033582;28;20223;-76
2022/08/23 04:38:29;;;;;;;13.68;4.57;;;22.80;99.90;;;;;;5019417;28;20272;-76
2022/08/23 04:43:43;;;;;;;18.00;5.13;;;22.80;99.90;;;;;;5012624;28;20593;-76
2022/08/23 04:46:14;;;;;;;17.40;5.20;;;22.80;99.90;;;;;;5033592;28;20279;-76
2022/08/23 04:48:42;;;;;;;15.93;5.55;;;22.90;99.90;;;;;;5059421;28;20188;-76
2022/08/23 04:51:10;;;;;;;19.02;5.93;;;23.00;99.90;;;;;;5027651;28;20211;-75
2022/08/23 04:53:37;;;;;;;20.63;5.57;;;23.00;99.90;;;;;;5030127;28;20184;-76
2022/08/23 04:56:05;;;;;;;15.37;5.10;;;23.10;99.90;;;;;;5021407;28;20203;-76
2022/08/23 04:58:34;;;;;;;16.05;5.38;;;23.10;99.90;;;;;;5025603;28;20279;-76
2022/08/23 05:01:04;;;;;;;12.70;5.10;;;23.20;99.90;;;;;;5016618;28;20176;-76
2022/08/23 05:03:31;;;;;;;13.27;5.23;;;23.20;99.90;;;;;;5008108;28;20246;-76
2022/08/23 05:05:57;;;;;;;13.73;5.17;;;23.30;99.90;;;;;;5030419;28;20192;-75
2022/08/23 05:08:24;;;;;;;18.45;5.53;;;23.40;99.90;;;;;;5027437;28;20275;-76
2022/08/23 05:10:51;;;;;;;14.52;5.30;;;23.40;99.90;;;;;;5020976;28;20633;-75
2022/08/23 05:13:18;;;;;;;12.43;5.47;;;23.50;99.90;;;;;;5027591;28;20252;-76
2022/08/23 05:15:45;;;;;;;14.93;5.05;;;23.50;99.90;;;;;;5027303;28;20212;-75
2022/08/23 05:18:12;;;;;;;15.32;6.07;;;23.60;99.90;;;;;;5027812;28;20234;-76
2022/08/23 05:20:38;;;;;;;17.60;5.32;;;23.60;99.90;;;;;;5030754;28;20180;-76
2022/08/23 05:23:04;;;;;;;16.23;5.28;;;23.60;99.90;;;;;;5020563;28;20571;-76
2022/08/23 05:25:49;;;;;;;16.33;5.25;;;23.70;99.90;;;;;;5009488;28;20180;-76
2022/08/23 05:28:33;;;;;;;18.17;5.70;;;23.70;99.90;;;;;;5027390;28;20198;-76
2022/08/23 05:31:08;;;;;;;20.83;5.78;;;23.70;99.90;;;;;;5037723;28;20195;-76
2022/08/23 05:33:43;;;;;;;13.48;5.40;;;23.80;99.90;;;;;;5031720;28;20191;-76
2022/08/23 05:36:13;;;;;;;13.23;5.15;;;23.90;99.90;;;;;;5012545;28;20572;-76
2022/08/23 05:38:45;;;;;;;13.23;4.85;;;23.90;99.90;;;;;;5007299;28;20195;-75
2022/08/23 05:41:13;;;;;;;21.98;6.00;;;24.00;99.90;;;;;;5021329;28;20188;-75
2022/08/23 05:43:39;;;;;;;12.05;5.13;;;24.00;99.90;;;;;;5027489;28;20192;-76
2022/08/23 05:46:21;;;;;;;21.02;5.50;;;24.10;99.90;;;;;;5013714;28;20856;-76
2022/08/23 05:48:50;;;;;;;14.45;5.85;;;24.10;99.90;;;;;;5007880;28;20223;-76
2022/08/23 05:51:18;;;;;;;20.00;5.00;;;24.20;99.90;;;;;;5025240;28;20188;-76
2022/08/23 05:53:47;;;;;;;16.05;5.05;;;24.20;99.90;;;;;;5040795;28;20247;-76
2022/08/23 05:56:34;;;;;;;15.18;5.47;;;24.20;99.90;;;;;;5022105;28;20200;-75
2022/08/23 05:59:05;;;;;;;13.00;5.20;;;24.30;99.90;;;;;;5024042;28;20255;-76
2022/08/23 06:01:33;;;;;;;10.57;4.75;;;24.40;99.90;;;;;;5030210;28;20243;-76
2022/08/23 06:04:02;;;;;;;15.55;5.43;;;24.40;99.90;;;;;;5022947;28;20217;-76
2022/08/23 06:06:28;;;;;;;16.75;5.00;;;24.50;99.90;;;;;;5010059;28;20188;-76
2022/08/23 06:08:55;;;;;;;15.30;5.13;;;24.50;99.90;;;;;;5026622;28;20188;-76
2022/08/23 06:11:26;;;;;;;14.73;5.05;;;24.50;99.90;;;;;;5037065;28;20191;-76
2022/08/23 06:13:57;;;;;;;12.77;4.80;;;24.50;99.90;;;;;;5010713;28;20192;-76
2022/08/23 06:16:32;;;;;;;18.38;5.10;;;24.60;99.90;;;;;;5027376;28;20319;-76
2022/08/23 06:19:01;;;;;;;16.60;5.35;;;24.70;99.90;;;;;;5007357;28;20216;-76
2022/08/23 06:21:29;;;;;;;17.38;5.00;;;24.70;99.90;;;;;;5022403;28;20180;-76
2022/08/23 06:23:56;;;;;;;16.08;5.00;;;24.80;99.90;;;;;;5035268;28;20630;-76
2022/08/23 06:26:31;;;;;;;11.63;4.50;;;25.00;99.90;;;;;;5026912;28;20245;-76
2022/08/23 06:29:02;;;;;;;13.50;4.60;;;25.10;99.90;;;;;;5008952;28;20235;-76
2022/08/23 06:31:45;;;;;;;12.52;4.47;;;25.00;99.90;;;;;;5039079;28;20195;-76
2022/08/23 06:34:25;;;;;;;13.60;4.80;;;25.00;99.90;;;;;;5030125;28;20192;-76
2022/08/23 06:36:59;;;;;;;15.30;4.47;;;25.10;99.90;;;;;;5015300;28;20197;-76
2022/08/23 06:39:30;;;;;;;12.68;4.40;;;25.10;99.90;;;;;;5008644;28;20199;-74
2022/08/23 06:42:07;;;;;;;18.50;5.32;;;25.20;99.90;;;;;;5028864;28;20203;-76
2022/08/23 06:44:34;;;;;;;12.70;4.80;;;25.40;99.90;;;;;;5030952;28;20942;-76
2022/08/23 06:47:04;;;;;;;13.77;4.65;;;25.50;99.90;;;;;;5028118;28;20780;-76
2022/08/23 06:49:33;;;;;;;17.13;4.93;;;25.50;99.90;;;;;;5029882;28;20281;-76
2022/08/23 06:52:04;;;;;;;17.65;5.05;;;25.60;99.90;;;;;;5023640;28;20267;-76
2022/08/23 06:54:34;;;;;;;16.90;4.95;;;25.60;99.90;;;;;;5030214;28;20204;-76
2022/08/23 06:57:01;;;;;;;20.65;5.47;;;25.60;99.90;;;;;;5029954;28;20203;-76
2022/08/23 06:59:28;;;;;;;16.27;4.50;;;25.60;99.90;;;;;;5009571;28;20185;-76
2022/08/23 07:02:00;;;;;;;14.00;4.28;;;25.60;99.90;;;;;;5055138;28;20514;-76
2022/08/23 07:04:38;;;;;;;13.73;4.55;;;25.60;99.90;;;;;;5027669;28;20934;-76
2022/08/23 07:07:08;;;;;;;14.30;5.10;;;25.70;99.90;;;;;;5007627;28;20206;-76
2022/08/23 07:09:35;;;;;;;19.50;4.75;;;25.80;99.90;;;;;;5014183;28;20320;-76
2022/08/23 07:12:05;;;;;;;18.88;4.97;;;25.90;99.90;;;;;;5021978;28;20184;-73
2022/08/23 07:15:15;;;;;;;13.05;4.30;;;25.90;99.90;;;;;;5030561;28;20726;-74
2022/08/23 07:17:41;;;;;;;13.65;4.47;;;26.00;99.90;;;;;;5015349;28;20196;-76
2022/08/23 07:20:08;;;;;;;18.40;4.22;;;26.00;99.90;;;;;;5025566;28;20184;-76
2022/08/23 07:22:35;;;;;;;19.55;4.75;;;26.00;99.90;;;;;;5049256;28;20187;-76
2022/08/23 07:25:03;;;;;;;16.45;4.63;;;26.00;99.90;;;;;;5030885;28;20281;-75
2022/08/23 07:27:32;;;;;;;17.38;4.90;;;26.00;99.90;;;;;;5026186;28;20204;-75
2022/08/23 07:29:58;;;;;;;14.75;4.53;;;26.20;99.90;;;;;;5027106;28;20215;-75
2022/08/23 07:32:25;;;;;;;16.40;4.28;;;26.30;99.90;;;;;;5022578;28;20550;-76
2022/08/23 07:34:51;;;;;;;13.70;4.47;;;26.50;99.90;;;;;;5028086;28;20689;-76
2022/08/23 07:37:34;;;;;;;15.32;4.32;;;26.60;99.90;;;;;;5023793;28;20212;-76
2022/08/23 07:40:07;;;;;;;19.95;4.72;;;26.70;99.90;;;;;;5025653;28;20192;-76
2022/08/23 07:42:43;;;;;;;17.48;4.90;;;26.80;99.90;;;;;;5013436;28;20207;-76
2022/08/23 07:45:12;;;;;;;14.75;4.63;;;26.90;99.90;;;;;;5012332;28;20273;-75
2022/08/23 07:47:41;;;;;;;17.35;4.88;;;27.00;99.90;;;;;;5028140;28;20274;-76
2022/08/23 07:50:08;;;;;;;13.43;4.07;;;27.10;99.90;;;;;;5037355;28;20261;-75
2022/08/23 07:52:34;;;;;;;12.75;4.03;;;27.00;99.90;;;;;;5044768;28;20279;-76
2022/08/23 07:55:01;;;;;;;15.45;4.20;;;27.00;99.90;;;;;;5028145;28;20681;-75
2022/08/23 07:57:27;;;;;;;18.98;4.55;;;27.00;99.90;;;;;;5012387;28;20267;-76
2022/08/23 07:59:54;;;;;;;16.77;4.53;;;27.00;99.90;;;;;;5027931;28;20194;-73
2022/08/23 08:02:21;;;;;;;16.73;4.60;;;27.10;99.90;;;;;;5045715;28;20247;-75
2022/08/23 08:04:47;;;;;;;15.52;4.45;;;27.20;99.90;;;;;;5027429;28;20184;-74
2022/08/23 08:07:14;;;;;;;17.42;4.30;;;27.40;99.90;;;;;;5052539;28;20539;-73
2022/08/23 08:09:41;;;;;;;14.60;4.22;;;27.40;99.90;;;;;;5043190;28;20199;-73
2022/08/23 08:12:08;;;;;;;12.38;4.03;;;27.40;99.90;;;;;;5028627;28;20192;-75
2022/08/23 08:14:38;;;;;;;15.70;4.32;;;27.40;99.90;;;;;;5012265;28;20210;-73
2022/08/23 08:17:05;;;;;;;14.98;4.35;;;27.50;99.90;;;;;;5027287;28;20263;-76
2022/08/23 08:19:32;;;;;;;18.55;4.53;;;27.60;99.90;;;;;;5029978;28;20180;-75
2022/08/23 08:21:59;;;;;;;18.58;4.38;;;27.60;99.90;;;;;;5033949;28;20239;-75
2022/08/23 08:24:25;;;;;;;16.95;4.30;;;27.80;99.90;;;;;;5050034;28;20172;-76
2022/08/23 08:26:52;;;;;;;14.40;4.60;;;27.90;99.90;;;;;;5047042;28;20344;-76
2022/08/23 08:29:19;;;;;;;16.02;4.10;;;28.00;99.90;;;;;;5029860;28;20259;-75
2022/08/23 08:31:46;;;;;;;17.13;4.45;;;28.00;99.90;;;;;;5011994;28;20271;-76
2022/08/23 08:34:13;;;;;;;14.13;4.07;;;28.00;99.90;;;;;;5029662;28;20824;-75
2022/08/23 08:36:48;;;;;;;14.82;4.30;;;28.10;99.90;;;;;;5027584;28;20905;-75
2022/08/23 08:39:21;;;;;;;14.00;3.65;;;28.20;99.90;;;;;;5021728;28;20187;-76
2022/08/23 08:41:53;;;;;;;18.77;4.32;;;28.30;99.90;;;;;;5032232;28;20274;-76
2022/08/23 08:44:50;;;;;;;16.55;4.15;;;28.40;99.90;;;;;;5007728;28;20185;-75
2022/08/23 08:47:49;;;;;;;16.13;3.72;;;28.50;99.90;;;;;;5020922;28;20191;-76
2022/08/23 08:50:53;;;;;;;12.20;3.47;;;28.50;99.90;;;;;;5026152;28;20199;-75
2022/08/23 08:53:38;;;;;;;14.00;3.95;;;28.20;99.90;;;;;;5006623;28;20208;-75
2022/08/23 08:56:27;;;;;;;13.00;3.60;;;28.10;99.90;;;;;;5029785;28;20219;-76
2022/08/23 08:59:01;;;;;;;15.05;3.70;;;28.30;99.90;;;;;;5025750;28;20196;-75
2022/08/23 09:01:31;;;;;;;12.35;4.10;;;28.30;99.90;;;;;;5006901;28;20186;-76
2022/08/23 09:03:59;;;;;;;12.77;3.70;;;28.60;99.90;;;;;;5027501;28;20218;-76
2022/08/23 09:18:50;;;;;;;12.20;3.50;;;28.80;99.90;;;;;;5126296;27;20907;-75
2022/08/23 09:21:17;;;;;;;20.45;3.65;;;29.10;99.90;;;;;;5128740;27;20239;-74
2022/08/23 09:23:48;;;;;;;14.45;4.00;;;29.20;99.90;;;;;;5112073;28;20208;-73
2022/08/23 09:26:26;;;;;;;15.68;2.97;;;29.40;99.90;;;;;;5104996;28;20622;-75
2022/08/23 09:29:16;;;;;;;11.40;3.92;;;29.50;99.90;;;;;;5123205;27;20277;-76
2022/08/23 09:31:49;;;;;;;13.32;3.42;;;29.60;99.90;;;;;;5101381;28;20191;-73
2022/08/23 09:34:43;;;;;;;16.42;3.38;;;29.70;99.90;;;;;;5100557;28;20295;-73
2022/08/23 09:37:21;;;;;;;17.60;3.80;;;29.90;99.90;;;;;;5099705;28;20205;-77
2022/08/23 09:40:32;;;;;;;14.68;3.20;;;30.00;99.90;;;;;;5117368;27;20216;-73
2022/08/23 09:43:22;;;;;;;13.20;3.75;;;30.00;99.90;;;;;;5092553;28;20230;-76
2022/08/23 09:45:49;;;;;;;17.00;3.65;;;30.10;99.90;;;;;;5091572;27;20190;-75
2022/08/23 09:48:42;;;;;;;12.35;3.92;;;30.20;99.90;;;;;;5102855;27;20220;-76
2022/08/23 09:51:41;;;;;;;12.73;3.33;;;30.10;99.90;;;;;;5100083;28;20217;-77
2022/08/23 09:54:31;;;;;;;14.65;3.53;;;30.30;99.90;;;;;;5099718;28;20183;-76
2022/08/23 09:57:09;;;;;;;15.25;3.40;;;30.40;99.90;;;;;;5073189;28;20186;-76
2022/08/23 09:59:46;;;;;;;15.10;3.30;;;30.30;99.90;;;;;;5132739;27;20200;-76
2022/08/23 10:02:30;;;;;;;12.73;3.53;;;30.50;99.90;;;;;;5130090;27;20685;-76
2022/08/23 10:05:15;;;;;;;11.70;3.53;;;30.60;99.90;;;;;;5112210;27;20285;-76
2022/08/23 10:07:53;;;;;;;15.43;3.75;;;30.70;99.90;;;;;;5104842;28;20222;-74
2022/08/23 10:10:35;;;;;;;20.48;4.10;;;30.60;99.90;;;;;;5111359;28;20190;-75
2022/08/23 10:13:06;;;;;;;18.35;3.35;;;30.60;99.90;;;;;;5097301;28;20646;-75
2022/08/23 10:16:02;;;;;;;11.45;3.00;;;30.90;99.90;;;;;;5096106;28;20646;-75
2022/08/23 10:19:02;;;;;;;12.07;3.10;;;30.60;99.90;;;;;;5089795;28;20197;-75
2022/08/23 10:21:48;;;;;;;9.98;3.17;;;30.90;99.90;;;;;;5079810;28;20508;-76
2022/08/23 10:24:34;;;;;;;11.55;2.95;;;31.20;99.90;;;;;;5081586;28;20178;-76
2022/08/23 10:30:17;;;;;;;15.82;3.10;;;31.20;99.90;;;;;;5084405;28;20325;-76
2022/08/23 10:33:12;;;;;;;17.42;3.72;;;30.80;99.90;;;;;;5088163;28;20182;-76
2022/08/23 10:35:48;;;;;;;11.73;3.30;;;30.80;99.90;;;;;;5084468;28;20190;-77
2022/08/23 10:38:38;;;;;;;11.57;3.40;;;30.90;99.90;;;;;;5073803;28;20185;-77
2022/08/23 10:41:59;;;;;;;11.68;2.75;;;31.00;99.90;;;;;;5116049;27;20187;-73
2022/08/23 10:45:02;;;;;;;7.97;2.58;;;31.20;99.90;;;;;;5076450;28;20929;-76
2022/08/23 10:47:36;;;;;;;14.18;3.58;;;31.30;99.90;;;;;;5088496;28;20221;-76
2022/08/23 10:50:21;;;;;;;15.90;3.20;;;31.20;99.90;;;;;;5083177;28;20190;-76
2022/08/23 10:53:15;;;;;;;11.48;3.20;;;31.10;99.90;;;;;;5062424;28;20203;-76
2022/08/23 10:56:03;;;;;;;10.77;2.55;;;31.20;99.90;;;;;;5080883;28;20207;-76
2022/08/23 10:59:02;;;;;;;9.55;2.75;;;31.30;99.90;;;;;;5080697;28;20178;-77
2022/08/23 11:02:06;;;;;;;10.30;3.10;;;31.30;99.90;;;;;;5089304;28;20179;-77
2022/08/23 11:04:52;;;;;;;8.98;2.97;;;31.30;99.90;;;;;;5084713;28;20233;-76
2022/08/23 11:07:36;;;;;;;13.20;3.30;;;31.00;99.90;;;;;;5088262;28;20197;-74
2022/08/23 11:10:36;;;;;;;10.57;2.90;;;30.90;99.90;;;;;;5083739;28;20188;-76
2022/08/23 11:13:29;;;;;;;11.77;2.90;;;30.70;99.90;;;;;;5051188;28;20186;-76
2022/08/23 11:16:08;;;;;;;8.38;2.35;;;30.90;99.90;;;;;;5083823;28;20295;-76
2022/08/23 11:18:50;;;;;;;9.30;3.05;;;30.70;99.90;;;;;;5092723;27;20194;-76
2022/08/23 11:21:32;;;;;;;10.02;3.20;;;30.70;99.90;;;;;;5075428;28;20271;-76
2022/08/23 11:23:58;;;;;;;14.38;3.03;;;30.70;99.90;;;;;;5095475;28;20240;-76
2022/08/23 11:26:35;;;;;;;10.35;3.08;;;30.60;99.90;;;;;;5081540;28;20238;-76
2022/08/23 11:29:09;;;;;;;9.15;3.05;;;30.60;99.90;;;;;;5088115;28;20211;-76
2022/08/23 11:31:41;;;;;;;11.95;2.88;;;30.60;99.90;;;;;;5087912;28;20256;-76
2022/08/23 11:34:29;;;;;;;10.77;2.83;;;30.50;99.90;;;;;;5097909;28;20548;-76
2022/08/23 11:37:18;;;;;;;9.75;3.20;;;30.50;99.90;;;;;;5086647;28;20189;-77
2022/08/23 11:39:56;;;;;;;14.20;3.42;;;30.40;99.90;;;;;;5087319;28;20186;-76
2022/08/23 11:42:37;;;;;;;8.82;2.75;;;30.30;99.90;;;;;;5085147;28;20276;-76
2022/08/23 11:45:26;;;;;;;10.60;2.90;;;30.50;99.90;;;;;;5111332;27;20182;-76
2022/08/23 11:48:14;;;;;;;11.25;2.85;;;30.40;99.90;;;;;;5099689;28;20206;-76
2022/08/23 11:51:16;;;;;;;14.30;2.80;;;30.40;99.90;;;;;;5084477;28;20190;-76
2022/08/23 11:54:04;;;;;;;7.55;2.83;;;30.20;99.90;;;;;;5065332;28;20616;-76
2022/08/23 11:56:58;;;;;;;11.75;3.00;;;30.30;99.90;;;;;;5085388;28;20265;-76
2022/08/23 12:00:00;;;;;;;13.50;2.65;;;30.30;99.90;;;;;;5080370;28;20246;-76
2022/08/23 12:03:03;;;;;;;11.05;2.95;;;30.30;99.90;;;;;;5112211;27;20193;-76
2022/08/23 12:05:34;;;;;;;8.95;2.50;;;30.50;99.90;;;;;;5085957;28;20284;-76
2022/08/23 12:08:04;;;;;;;12.30;2.97;;;30.60;99.90;;;;;;5082001;28;20216;-76
2022/08/23 12:10:40;;;;;;;8.82;2.83;;;30.60;99.90;;;;;;5064012;28;20187;-76
2022/08/23 12:13:20;;;;;;;13.98;3.55;;;30.50;99.90;;;;;;5085070;28;20228;-76
2022/08/23 12:16:15;;;;;;;9.32;3.00;;;30.50;99.90;;;;;;5103979;27;20250;-77
2022/08/23 12:18:59;;;;;;;9.38;2.90;;;30.40;99.90;;;;;;5078541;28;20221;-75
2022/08/23 12:21:51;;;;;;;8.90;2.65;;;30.40;99.90;;;;;;5067903;28;20642;-75
2022/08/23 12:24:46;;;;;;;9.52;2.35;;;30.40;99.90;;;;;;5084126;28;20216;-75
2022/08/23 12:27:35;;;;;;;9.65;2.95;;;30.40;99.90;;;;;;5062304;28;20232;-75
2022/08/23 12:30:19;;;;;;;10.55;2.83;;;30.30;99.90;;;;;;5087674;28;20818;-75
2022/08/23 12:33:40;;;;;;;13.95;3.08;;;30.30;99.90;;;;;;5074063;28;20208;-76
2022/08/23 12:36:38;;;;;;;13.10;2.97;;;30.30;99.90;;;;;;5052482;28;20654;-75
2022/08/23 12:39:48;;;;;;;7.90;2.35;;;30.20;99.90;;;;;;5079015;28;20281;-75
2022/08/23 12:42:32;;;;;;;10.93;2.88;;;30.20;99.90;;;;;;5068357;28;20235;-76
2022/08/23 12:45:10;;;;;;;14.88;3.33;;;30.20;99.90;;;;;;5116397;27;20188;-74
2022/08/23 12:47:40;;;;;;;17.83;3.08;;;30.20;99.90;;;;;;5094189;28;20202;-75
2022/08/23 12:50:41;;;;;;;11.35;2.97;;;30.20;99.90;;;;;;5087584;28;20179;-75
2022/08/23 12:53:16;;;;;;;9.23;2.58;;;30.10;99.90;;;;;;5064558;28;20267;-75
2022/08/23 12:56:04;;;;;;;10.63;2.90;;;29.90;99.90;;;;;;5086183;28;20185;-75
2022/08/23 12:58:37;;;;;;;12.48;2.90;;;29.90;99.90;;;;;;5086851;28;20285;-75
2022/08/23 13:01:19;;;;;;;10.70;2.90;;;29.90;99.90;;;;;;5099025;28;20175;-75
2022/08/23 13:03:55;;;;;;;10.45;2.88;;;29.90;99.90;;;;;;5089246;28;20228;-74
2022/08/23 13:06:29;;;;;;;15.40;3.15;;;29.90;99.90;;;;;;5083372;28;20201;-76
2022/08/23 13:09:13;;;;;;;16.52;3.08;;;29.90;99.90;;;;;;5110103;28;20189;-74
2022/08/23 13:11:43;;;;;;;12.60;3.03;;;29.90;99.90;;;;;;5086135;28;20687;-75
2022/08/23 13:14:48;;;;;;;19.15;3.67;;;30.00;99.90;;;;;;5080313;28;20187;-74
2022/08/23 13:17:25;;;;;;;14.20;3.10;;;29.90;99.90;;;;;;5049408;28;20263;-75
2022/08/23 13:20:12;;;;;;;12.57;2.90;;;29.90;99.90;;;;;;5099564;28;20186;-74
2022/08/23 13:23:04;;;;;;;12.18;3.20;;;29.80;99.90;;;;;;5057846;28;20182;-75
2022/08/23 13:25:38;;;;;;;12.27;3.20;;;29.70;99.90;;;;;;5076842;28;20189;-75
2022/08/23 13:28:28;;;;;;;8.52;3.10;;;29.60;99.90;;;;;;5084328;28;20216;-75
2022/08/23 13:31:07;;;;;;;11.75;2.65;;;29.70;99.90;;;;;;5081177;28;20186;-75
2022/08/23 13:33:34;;;;;;;13.77;3.30;;;29.70;99.90;;;;;;5079786;28;20210;-75
2022/08/23 13:36:20;;;;;;;15.48;3.55;;;29.70;99.90;;;;;;5085008;28;20227;-75
2022/08/23 13:38:46;;;;;;;14.02;2.88;;;29.70;99.90;;;;;;5078977;28;20250;-75
2022/08/23 13:41:33;;;;;;;10.13;2.88;;;29.70;99.90;;;;;;5089828;28;20694;-75
2022/08/23 13:44:07;;;;;;;11.95;2.92;;;29.70;99.90;;;;;;5095417;28;20281;-75
2022/08/23 13:46:43;;;;;;;13.02;2.88;;;29.60;99.90;;;;;;5075770;28;20199;-73